Latest Weather Observations for White Cliffs AWS

IDN60801

Issued at 11:04 pm EDT Saturday 20 December 2014 (issued every 30 minutes, with the page automatically refreshed every 10 minutes)

About weather observations | Map of weather stations | Latest weather observations for NSW | Other Formats
Station Details ID: 046129 Name: WHITE CLIFFS AWS Lat: -30.85 Lon: 143.07 Height: 158.0 m
Data from the previous 72 hours. | See also: Recent months at White Cliffs AWS
Date/Time
EDT
Temp
°C
App
Temp
°C
Dew
Point
Rel
Hum
%
Delta-T
°C
Wind Press
QNH
hPa
Press
MSL
hPa
Rain
since 9 am
mm
Dir
 
Spd
km/h
Gust
km/h
Spd
kts
Gust
kts
20/11:00pm 26.7 22.3 0.4 18 12.4 SSE 13 15 7 8 1013.1 1012.2 0.0
20/10:30pm 27.5 23.1 0.3 17 12.9 SSE 13 15 7 8 1013.1 1012.2 0.0
20/10:00pm 28.2 23.7 0.0 16 13.4 SSE 13 15 7 8 1013.1 1012.2 0.0
20/09:30pm 28.8 24.7 -0.4 15 13.8 SSE 11 13 6 7 1013.1 1012.2 0.0
20/09:00pm 29.8 25.7 -0.5 14 14.4 SSE 11 11 6 6 1013.0 1012.1 0.0
20/08:30pm 30.7 26.1 -0.8 13 15.0 SE 13 15 7 8 1012.7 1011.8 0.0
20/08:00pm 31.7 26.3 -1.2 12 15.7 SE 17 20 9 11 1012.5 1011.6 0.0
20/07:30pm 32.0 26.7 -0.9 12 15.8 SSE 17 20 9 11 1012.1 1011.2 0.0
20/07:00pm 32.3 27.4 -0.7 12 15.9 SSE 15 19 8 10 1012.0 1011.1 0.0
20/06:30pm 32.8 27.5 -0.3 12 16.1 S 17 26 9 14 1011.8 1010.8 0.0
20/06:00pm 32.4 26.9 -1.8 11 16.2 SSE 17 32 9 17 1011.9 1011.0 0.0
20/05:30pm 32.9 27.9 -1.4 11 16.4 SSE 15 24 8 13 1012.0 1011.1 0.0
20/05:00pm 32.1 27.1 -0.9 12 15.9 S 15 24 8 13 1012.2 1011.3 0.0
20/04:30pm 31.9 27.3 -1.0 12 15.8 S 13 28 7 15 1012.7 1011.8 0.0
20/04:00pm 32.1 27.5 -0.9 12 15.9 S 13 22 7 12 1013.0 1012.1 0.0
20/03:30pm 32.2 26.9 -0.8 12 15.9 SE 17 28 9 15 1013.5 1012.6 0.0
20/03:00pm 30.8 25.9 -0.8 13 15.1 SSW 15 26 8 14 1014.0 1013.1 0.0
20/02:30pm 31.5 26.6 -0.2 13 15.4 ESE 15 22 8 12 1014.3 1013.4 0.0
20/02:00pm 30.9 25.6 -0.7 13 15.1 SSE 17 33 9 18 1014.7 1013.8 0.0
20/01:30pm 28.7 24.1 -1.4 14 14.0 ESE 13 20 7 11 1015.3 1014.4 0.0
20/01:00pm 28.9 23.9 -1.2 14 14.0 SE 15 24 8 13 1015.8 1014.9 0.0
20/12:30pm 27.6 23.0 -1.3 15 13.3 E 13 24 7 13 1016.3 1015.4 0.0
20/12:00pm 27.9 22.3 -0.2 16 13.2 ESE 19 30 10 16 1016.6 1015.6 0.0
20/11:30am 27.3 21.6 -0.7 16 13.0 ESE 19 30 10 16 1017.0 1016.0 0.0
20/11:00am 26.7 20.9 -0.3 17 12.6 SE 20 28 11 15 1017.0 1016.0 0.0
20/10:30am 26.2 20.5 -0.8 17 12.4 ESE 19 30 10 16 1017.0 1016.0 0.0
20/10:00am 25.9 20.7 -0.2 18 12.1 ESE 17 26 9 14 1017.4 1016.4 0.0
20/09:30am 24.7 19.0 -0.4 19 11.5 ESE 19 26 10 14 1017.6 1016.7 0.0
20/09:00am 23.8 17.9 -0.5 20 11.0 ESE 20 26 11 14 1017.6 1016.7 0.0
20/08:30am 23.0 17.1 -0.5 21 10.6 ESE 20 28 11 15 1017.5 1016.5 0.0
20/08:00am 22.5 16.6 -0.9 21 10.4 ESE 20 28 11 15 1017.3 1016.3 0.0
20/07:30am 21.8 16.1 -0.8 22 10.0 SE 19 24 10 13 1017.0 1016.0 0.0
20/07:00am 20.7 15.0 -0.6 24 9.4 SE 19 24 10 13 1016.7 1015.7 0.0
20/06:30am 20.1 14.4 -1.1 24 9.2 SE 19 24 10 13 1016.0 1015.1 0.0
20/06:00am 20.1 14.4 -1.1 24 9.2 SE 19 22 10 12 1015.6 1014.7 0.0
20/05:30am 18.8 13.4 -1.1 26 8.6 SSE 17 20 9 11 1015.3 1014.4 0.0
20/05:00am 18.7 13.3 -1.7 25 8.7 SSE 17 20 9 11 1015.3 1014.4 0.0
20/04:30am 18.9 13.5 -1.5 25 8.7 SSE 17 20 9 11 1015.2 1014.3 0.0
20/04:00am 19.1 13.7 -1.4 25 8.8 SSE 17 20 9 11 1015.2 1014.3 0.0
20/03:30am 19.6 14.6 -0.9 25 8.9 S 15 19 8 10 1015.4 1014.5 0.0
20/03:00am 19.7 14.7 -1.4 24 9.1 S 15 17 8 9 1015.5 1014.6 0.0
20/02:30am 20.2 14.8 -1.6 23 9.4 S 17 19 9 10 1015.7 1014.8 0.0
20/02:00am 20.7 15.7 -1.2 23 9.6 S 15 17 8 9 1015.8 1014.9 0.0
20/01:30am 21.1 15.7 -1.4 22 9.8 S 17 19 9 10 1016.0 1015.1 0.0
20/01:00am 21.4 16.3 -1.8 21 10.1 S 15 17 8 9 1016.2 1015.3 0.0
20/12:30am 21.9 17.2 -2.0 20 10.4 S 13 15 7 8 1016.5 1015.5 0.0
20/12:00am 22.7 17.6 -2.1 19 10.8 S 15 17 8 9 1016.8 1015.8 0.0
 
Date/Time
EDT
Temp
°C
App
Temp
°C
Dew
Point
Rel
Hum
%
Delta-T
°C
Wind Press
QNH
hPa
Press
MSL
hPa
Rain
since 9 am
mm
Dir
 
Spd
km/h
Gust
km/h
Spd
kts
Gust
kts
19/11:30pm 23.3 17.8 -2.3 18 11.2 S 17 20 9 11 1016.9 1015.9 0.0
19/11:00pm 23.6 18.4 -2.8 17 11.5 S 15 19 8 10 1016.9 1015.9 0.0
19/10:30pm 23.8 19.0 -2.7 17 11.6 SSW 13 15 7 8 1016.8 1015.8 0.0
19/10:00pm 24.5 19.3 -2.9 16 12.0 SSW 15 17 8 9 1016.2 1015.3 0.0
19/09:30pm 25.5 20.2 -3.9 14 12.7 SSW 15 19 8 10 1015.9 1015.0 0.0
19/09:00pm 26.4 20.1 -4.2 13 13.3 S 20 26 11 14 1015.5 1014.6 0.0
19/08:30pm 27.0 19.2 -3.7 13 13.5 S 28 33 15 18 1015.1 1014.2 0.0
19/08:00pm 27.9 20.4 -4.1 12 14.1 S 26 33 14 18 1014.8 1013.9 0.0
19/07:30pm 28.7 21.2 -4.6 11 14.6 SSW 26 35 14 19 1014.5 1013.6 0.0
19/07:00pm 29.5 22.4 -4.0 11 15.0 SSW 24 35 13 19 1014.2 1013.3 0.0
19/06:30pm 29.4 22.6 -5.4 10 15.2 SW 22 35 12 19 1014.2 1013.3 0.0
19/06:00pm 30.3 23.2 -4.7 10 15.5 SW 24 39 13 21 1014.1 1013.2 0.0
19/05:30pm 30.1 22.7 -3.6 11 15.2 SSW 26 39 14 21 1014.1 1013.2 0.0
19/05:00pm 29.5 22.6 -2.9 12 14.8 SSW 24 37 13 20 1014.4 1013.5 0.0
19/04:30pm 30.4 24.8 -0.1 14 14.7 SSW 19 32 10 17 1014.6 1013.7 0.0
19/04:00pm 28.9 23.2 0.6 16 13.6 SSW 20 30 11 16 1015.0 1014.1 0.0
19/03:30pm 29.2 22.9 1.7 17 13.5 SW 24 39 13 21 1015.3 1014.4 0.0
19/03:00pm 28.7 23.6 2.8 19 13.0 SW 19 28 10 15 1015.5 1014.6 0.0
19/02:30pm 27.9 22.9 3.6 21 12.3 SW 19 30 10 16 1015.9 1015.0 0.0
19/02:00pm 27.0 21.3 2.8 21 12.0 SSW 22 32 12 17 1016.2 1015.3 0.0
19/01:30pm 25.8 21.6 3.7 24 11.0 SSW 15 24 8 13 1016.5 1015.5 0.0
19/01:00pm 26.2 21.7 4.1 24 11.1 SSW 17 28 9 15 1016.9 1015.9 0.0
19/12:30pm 25.2 20.7 4.3 26 10.5 SE 17 32 9 17 1017.0 1016.0 0.0
19/12:00pm 25.5 20.7 4.6 26 10.6 SSW 19 30 10 16 1017.2 1016.2 0.0
19/11:30am 25.0 20.0 4.7 27 10.3 SSE 20 28 11 15 1017.3 1016.3 0.0
19/11:00am 24.0 18.6 4.4 28 9.8 SSE 22 32 12 17 1017.2 1016.2 0.0
19/10:30am 23.5 17.7 4.5 29 9.5 SSE 24 33 13 18 1017.3 1016.3 0.0
19/10:00am 23.1 17.3 4.6 30 9.2 SSE 24 33 13 18 1017.1 1016.1 0.0
19/09:30am 22.6 16.6 5.1 32 8.8 SSE 26 35 14 19 1016.9 1015.9 0.0
19/09:00am 21.8 15.3 4.8 33 8.4 SSE 28 33 15 18 1016.8 1015.8 0.0
19/08:30am 21.6 14.8 5.1 34 8.2 SSE 30 37 16 20 1016.2 1015.3 0.0
19/08:00am 21.2 15.2 5.1 35 8.0 SSE 26 32 14 17 1015.7 1014.8 0.0
19/07:30am 20.6 14.6 5.4 37 7.6 S 26 35 14 19 1015.4 1014.5 0.0
19/07:00am 20.1 14.5 5.4 38 7.3 SSE 24 30 13 16 1015.0 1014.1 0.0
19/06:30am 19.9 15.1 5.5 39 7.1 S 20 26 11 14 1014.6 1013.7 0.0
19/06:00am 20.2 14.6 5.4 38 7.3 SSE 24 33 13 18 1014.2 1013.3 0.0
19/05:30am 20.7 14.4 5.5 37 7.6 SSE 28 37 15 20 1013.9 1013.0 0.0
19/05:00am 21.2 13.9 5.5 36 7.9 SSE 33 41 18 22 1013.3 1012.4 0.0
19/04:30am 21.7 15.3 5.2 34 8.2 SSE 28 37 15 20 1013.2 1012.3 0.0
19/04:00am 22.2 15.6 4.3 31 8.8 S 28 35 15 19 1013.3 1012.4 0.0
19/03:30am 22.8 15.8 4.3 30 9.1 S 30 37 16 20 1013.2 1012.3 0.0
19/03:00am 23.2 17.8 2.7 26 9.9 S 20 28 11 15 1013.0 1012.1 0.0
19/02:30am 23.9 19.5 2.7 25 10.3 S 15 20 8 11 1012.8 1011.9 0.0
19/02:00am 24.3 20.2 2.5 24 10.5 S 13 17 7 9 1012.8 1011.9 0.0
19/01:30am 25.1 20.3 2.5 23 11.0 S 17 20 9 11 1012.7 1011.8 0.0
19/01:00am 25.8 20.0 2.5 22 11.4 S 22 28 12 15 1012.5 1011.6 0.0
19/12:30am 26.4 20.3 3.0 22 11.6 S 24 32 13 17 1012.2 1011.3 0.0
19/12:00am 27.2 20.8 3.0 21 12.0 S 26 33 14 18 1011.8 1010.8 0.0
 
Date/Time
EDT
Temp
°C
App
Temp
°C
Dew
Point
Rel
Hum
%
Delta-T
°C
Wind Press
QNH
hPa
Press
MSL
hPa
Rain
since 9 am
mm
Dir
 
Spd
km/h
Gust
km/h
Spd
kts
Gust
kts
18/11:30pm 27.8 22.2 3.5 21 12.2 S 22 32 12 17 1011.5 1010.5 0.0
18/11:00pm 28.0 22.8 3.7 21 12.3 SSW 20 24 11 13 1011.2 1010.2 0.0
18/10:30pm 28.7 24.4 3.5 20 12.8 S 15 20 8 11 1011.0 1010.0 0.0
18/10:00pm 29.3 24.1 3.3 19 13.2 S 20 26 11 14 1010.6 1009.6 0.0
18/09:30pm 29.9 24.6 3.0 18 13.6 S 20 26 11 14 1010.3 1009.3 0.0
18/09:00pm 30.5 23.6 2.7 17 14.1 SSW 28 35 15 19 1010.1 1009.1 0.0
18/08:30pm 31.3 23.6 2.5 16 14.6 SSW 32 39 17 21 1009.7 1008.8 0.0
18/08:00pm 32.5 24.7 1.6 14 15.5 SSW 32 39 17 21 1009.2 1008.3 0.0
18/07:30pm 33.9 27.3 -0.7 11 16.9 SW 24 33 13 18 1008.6 1007.7 0.0
18/07:00pm 34.2 26.7 -1.7 10 17.3 SW 28 41 15 22 1008.4 1007.5 0.0
18/06:30pm 34.5 26.2 -1.5 10 17.4 SW 32 44 17 24 1008.1 1007.2 0.0
18/06:00pm 35.6 28.4 -2.1 9 18.2 SSW 26 50 14 27 1007.8 1006.9 0.0
18/05:30pm 35.5 28.1 -3.8 8 18.4 SSW 26 50 14 27 1007.6 1006.7 0.0
18/05:04pm 35.5 27.1 -5.5 7 18.7 WSW 30 48 16 26 1007.7 1006.8 0.0
18/05:00pm 35.2 26.8 -5.7 7 18.6 SW 30 48 16 26 1007.8 1006.9 0.0
18/04:30pm 35.0 26.8 -4.1 8 18.2 SW 30 46 16 25 1008.0 1007.1 0.0
18/04:00pm 35.1 28.6 -2.5 9 18.0 SW 22 30 12 16 1008.1 1007.2 0.0
18/03:30pm 34.0 25.3 -4.9 8 17.7 WSW 32 43 17 23 1008.5 1007.6 0.0
18/03:18pm 33.4 25.4 -5.3 8 17.4 SW 28 46 15 25 1008.5 1007.6 0.0
18/03:00pm 34.1 27.7 -4.8 8 17.8 W 20 32 11 17 1008.6 1007.7 0.0
18/02:30pm 32.8 27.0 -4.2 9 16.9 WNW 17 32 9 17 1008.9 1008.0 0.0
18/02:00pm 33.0 26.3 -4.0 9 17.0 WNW 22 41 12 22 1009.3 1008.4 0.0
18/01:30pm 32.1 26.0 -2.0 11 16.1 WNW 20 30 11 16 1009.7 1008.8 0.0
18/01:00pm 30.1 26.1 -2.4 12 15.0 WNW 9 19 5 10 1010.1 1009.1 0.0
18/12:30pm 29.1 25.3 -1.1 14 14.2 N 9 13 5 7 1010.2 1009.2 0.0
18/12:00pm 28.1 24.7 -0.9 15 13.6 N 7 11 4 6 1010.4 1009.4 0.0
18/11:30am 26.9 24.3 -1.9 15 13.1 SSE 2 6 1 3 1010.3 1009.3 0.0
18/11:00am 25.9 22.6 -1.0 17 12.3 S 6 9 3 5 1010.2 1009.2 0.0
18/10:30am 25.1 22.2 -0.9 18 11.9 SW 4 9 2 5 1010.0 1009.0 0.0
18/10:00am 24.5 22.3 -1.3 18 11.6 CALM 0 0 0 0 1009.9 1008.9 0.0
18/09:30am 23.5 21.4 -0.7 20 10.9 CALM 0 0 0 0 1009.5 1008.6 0.0
18/09:00am 22.9 20.5 -0.6 21 10.6 ESE 2 6 1 3 1009.0 1008.1 0.0
18/08:30am 22.4 20.4 -0.3 22 10.3 CALM 0 0 0 0 1009.0 1008.1 0.0
18/08:00am 21.9 19.1 -0.1 23 10.0 SE 4 7 2 4 1008.6 1007.7 0.0
18/07:30am 21.6 18.2 -0.4 23 9.9 ESE 7 9 4 5 1008.2 1007.3 0.0
18/07:00am 21.2 17.4 -0.7 23 9.7 ESE 9 11 5 6 1007.7 1006.8 0.0
18/06:30am 21.0 17.2 -0.9 23 9.7 ESE 9 9 5 5 1007.0 1006.1 0.0
18/06:00am 21.8 17.9 -1.5 21 10.3 ESE 9 11 5 6 1006.7 1005.8 0.0
18/05:30am 22.8 18.5 -1.3 20 10.7 ESE 11 13 6 7 1006.6 1005.7 0.0
18/05:00am 22.7 17.7 -1.4 20 10.7 SSE 15 20 8 11 1006.5 1005.6 0.0
18/04:30am 22.7 18.1 -1.4 20 10.7 S 13 17 7 9 1006.2 1005.2 0.0
18/04:00am 22.2 17.3 -0.5 22 10.2 SSW 15 17 8 9 1006.4 1005.5 0.0
18/03:30am 22.9 18.7 -1.2 20 10.7 S 11 13 6 7 1006.2 1005.2 0.0
18/03:00am 23.7 20.2 -1.3 19 11.2 SE 7 11 4 6 1006.2 1005.2 0.0
18/02:30am 24.6 20.0 -1.3 18 11.7 SSE 13 17 7 9 1005.7 1004.7 0.0
18/02:00am 24.7 20.1 -1.2 18 11.8 SE 13 19 7 10 1005.5 1004.5 0.0
18/01:30am 24.1 19.9 -0.9 19 11.3 ESE 11 13 6 7 1006.0 1005.0 0.0
18/01:00am 25.4 20.4 -1.4 17 12.2 SE 15 20 8 11 1006.2 1005.2 0.0
18/12:30am 25.4 20.4 -1.4 17 12.1 SSE 15 19 8 10 1006.4 1005.5 0.0
18/12:00am 25.6 21.7 -1.2 17 12.2 SE 9 13 5 7 1006.9 1006.0 0.0
 
Date/Time
EDT
Temp
°C
App
Temp
°C
Dew
Point
Rel
Hum
%
Delta-T
°C
Wind Press
QNH
hPa
Press
MSL
hPa
Rain
since 9 am
mm
Dir
 
Spd
km/h
Gust
km/h
Spd
kts
Gust
kts
17/11:30pm 26.3 21.3 -1.5 16 12.7 SE 15 17 8 9 1006.5 1005.6 0.0

Other Formats:

Comma delimited format used in spreadsheet applications
http://www.bom.gov.au/fwo/IDN60801/IDN60801.95699.axf

JavaScript Object Notation format (JSON) in row-major order
http://www.bom.gov.au/fwo/IDN60801/IDN60801.95699.json